METAR Data
IDs: Format: Raw Decoded Include TAF

Data at: 0336 UTC 19 Oct 2021

KHRO 190253Z AUTO 00000KT 10SM CLR 12/07 A3011 RMK AO2 SLP193 T01220072 51010
KHRO 190153Z AUTO 20004KT 10SM CLR 13/07 A3011 RMK AO2 SLP193 T01280072
KHRO 190053Z AUTO 18003KT 10SM CLR 14/07 A3009 RMK AO2 SLP189 T01390072
KHRO 182353Z AUTO 18003KT 10SM CLR 16/08 A3008 RMK AO2 SLP185 T01560078 10222 20156 55009
KHRO 182253Z AUTO 16007KT 10SM CLR 19/07 A3008 RMK AO2 SLP181 T01940067
KHRO 182153Z AUTO 17006KT 10SM CLR 21/06 A3009 RMK AO2 SLP185 T02110056
KHRO 182053Z AUTO 13007KT 10SM CLR 22/06 A3011 RMK AO2 SLP191 T02170056 56024
KHRO 181953Z AUTO 14007KT 10SM CLR 22/06 A3012 RMK AO2 SLP195 T02220056
KHRO 181853Z AUTO 17009KT 120V200 10SM CLR 22/06 A3015 RMK AO2 SLP205 T02170061
KHRO 181753Z AUTO 16007KT 10SM CLR 22/07 A3018 RMK AO2 SLP216 T02170067 10217 20067 58013
KHRO 181653Z AUTO VRB06KT 10SM CLR 21/08 A3021 RMK AO2 SLP222 T02060083
KHRO 181553Z AUTO 10003KT 10SM CLR 17/08 A3022 RMK AO2 SLP230 T01720083
KHRO 181453Z AUTO 00000KT 10SM CLR 15/09 A3022 RMK AO2 SLP231 T01500089 51011
KHRO 181353Z AUTO 00000KT 10SM CLR 11/08 A3022 RMK AO2 SLP232 T01060078
KHRO 181253Z AUTO 11003KT 10SM CLR 07/06 A3020 RMK AO2 SLP224 T00720056
KHRO 181153Z AUTO 13003KT 10SM CLR 07/05 A3019 RMK AO2 SLP222 T00670050 10089 20061 53005
KHRO 181053Z AUTO 00000KT 10SM CLR 07/05 A3018 RMK AO2 SLP216 T00670050
KHRO 180953Z AUTO 00000KT 10SM CLR 07/06 A3017 RMK AO2 SLP212 T00720056
KHRO 180853Z AUTO 00000KT 10SM CLR 07/06 A3017 RMK AO2 SLP212 T00720061 58008
KHRO 180753Z AUTO 15003KT 10SM CLR 08/06 A3018 RMK AO2 SLP216 T00780061
KHRO 180653Z AUTO 00000KT 10SM CLR 08/06 A3019 RMK AO2 SLP217 T00830061
KHRO 180553Z AUTO 16003KT 10SM CLR 08/06 A3020 RMK AO2 SLP220 T00830061 10150 20083 402220044 58006
KHRO 180453Z AUTO 00000KT 10SM CLR 10/06 A3020 RMK AO2 SLP222 T01000061
KHRO 180353Z AUTO 16003KT 10SM CLR 09/06 A3022 RMK AO2 SLP228 T00940061
KHRO 180253Z AUTO 26003KT 10SM CLR 10/07 A3022 RMK AO2 SLP228 T01000067 50003
KHRO 180153Z AUTO 00000KT 10SM CLR 11/07 A3022 RMK AO2 SLP231 T01110072
KHRO 180053Z AUTO 24004KT 10SM CLR 13/07 A3021 RMK AO2 SLP230 T01330067
KHRO 172353Z AUTO 00000KT 10SM CLR 14/06 A3021 RMK AO2 SLP229 T01440056 10222 20144 56005
KHRO 172253Z AUTO 00000KT 9SM CLR 21/04 A3021 RMK AO2 SLP224 T02060044
KHRO 172153Z AUTO 24004KT 10SM CLR 22/04 A3021 RMK AO2 SLP225 T02170039
KHRO 172053Z AUTO 00000KT 10SM CLR 22/03 A3022 RMK AO2 SLP229 T02170033 56021
KHRO 171953Z AUTO VRB04KT 10SM CLR 22/03 A3023 RMK AO2 SLP234 T02220033
KHRO 171853Z AUTO VRB04KT 10SM CLR 22/02 A3026 RMK AO2 SLP243 T02170022
KHRO 171753Z AUTO 32004KT 10SM CLR 21/03 A3029 RMK AO2 SLP253 T02110033 10211 20044 58014
KHRO 171653Z AUTO VRB04KT 10SM CLR 21/03 A3031 RMK AO2 SLP260 T02060028
KHRO 171553Z AUTO 00000KT 10SM CLR 18/06 A3033 RMK AO2 SLP267 T01830061